sensor_id;sensor_type;location;lat;lon;timestamp;P1;durP1;ratioP1;P2;durP2;ratioP2
12840;SDS011;6487;48.626;12.486;2023-06-22T00:01:28;7.03;;;4.07;;
12840;SDS011;6487;48.626;12.486;2023-06-22T00:03:56;6.53;;;4.83;;
12840;SDS011;6487;48.626;12.486;2023-06-22T00:06:27;6.53;;;4.17;;
12840;SDS011;6487;48.626;12.486;2023-06-22T00:08:55;5.47;;;4.53;;
12840;SDS011;6487;48.626;12.486;2023-06-22T00:11:25;4.97;;;4.43;;
12840;SDS011;6487;48.626;12.486;2023-06-22T00:13:54;9.67;;;5.10;;
12840;SDS011;6487;48.626;12.486;2023-06-22T00:16:22;7.07;;;4.80;;
12840;SDS011;6487;48.626;12.486;2023-06-22T00:18:50;7.03;;;4.87;;
12840;SDS011;6487;48.626;12.486;2023-06-22T00:21:19;6.83;;;4.57;;
12840;SDS011;6487;48.626;12.486;2023-06-22T00:23:47;6.70;;;4.13;;
12840;SDS011;6487;48.626;12.486;2023-06-22T00:26:16;6.83;;;4.33;;
12840;SDS011;6487;48.626;12.486;2023-06-22T00:28:52;7.37;;;4.53;;
12840;SDS011;6487;48.626;12.486;2023-06-22T00:31:20;9.93;;;5.23;;
12840;SDS011;6487;48.626;12.486;2023-06-22T00:33:49;8.47;;;4.73;;
12840;SDS011;6487;48.626;12.486;2023-06-22T00:36:24;7.80;;;4.67;;
12840;SDS011;6487;48.626;12.486;2023-06-22T00:38:55;8.03;;;4.60;;
12840;SDS011;6487;48.626;12.486;2023-06-22T00:41:23;7.10;;;4.33;;
12840;SDS011;6487;48.626;12.486;2023-06-22T00:43:58;9.07;;;4.50;;
12840;SDS011;6487;48.626;12.486;2023-06-22T00:46:27;9.13;;;4.30;;
12840;SDS011;6487;48.626;12.486;2023-06-22T00:48:55;6.73;;;4.80;;
12840;SDS011;6487;48.626;12.486;2023-06-22T00:51:24;8.13;;;4.73;;
12840;SDS011;6487;48.626;12.486;2023-06-22T00:53:52;5.00;;;4.50;;
12840;SDS011;6487;48.626;12.486;2023-06-22T00:56:22;6.00;;;4.37;;
12840;SDS011;6487;48.626;12.486;2023-06-22T00:58:56;8.03;;;4.40;;
12840;SDS011;6487;48.626;12.486;2023-06-22T01:01:29;6.17;;;4.20;;
12840;SDS011;6487;48.626;12.486;2023-06-22T01:04:04;6.43;;;4.70;;
12840;SDS011;6487;48.626;12.486;2023-06-22T01:06:34;5.33;;;4.60;;
12840;SDS011;6487;48.626;12.486;2023-06-22T01:09:12;7.73;;;5.20;;
12840;SDS011;6487;48.626;12.486;2023-06-22T01:11:48;8.13;;;5.20;;
12840;SDS011;6487;48.626;12.486;2023-06-22T01:14:27;7.50;;;5.07;;
12840;SDS011;6487;48.626;12.486;2023-06-22T01:17:04;7.70;;;5.07;;
12840;SDS011;6487;48.626;12.486;2023-06-22T01:19:37;4.80;;;4.40;;
12840;SDS011;6487;48.626;12.486;2023-06-22T01:22:13;7.03;;;4.57;;
12840;SDS011;6487;48.626;12.486;2023-06-22T01:24:47;7.67;;;5.13;;
12840;SDS011;6487;48.626;12.486;2023-06-22T01:27:28;6.90;;;4.83;;
12840;SDS011;6487;48.626;12.486;2023-06-22T01:30:10;6.37;;;4.33;;
12840;SDS011;6487;48.626;12.486;2023-06-22T01:32:39;8.47;;;5.50;;
12840;SDS011;6487;48.626;12.486;2023-06-22T01:35:11;6.50;;;5.33;;
12840;SDS011;6487;48.626;12.486;2023-06-22T01:37:44;6.87;;;4.87;;
12840;SDS011;6487;48.626;12.486;2023-06-22T01:40:14;5.57;;;5.00;;
12840;SDS011;6487;48.626;12.486;2023-06-22T01:42:43;8.10;;;5.17;;
12840;SDS011;6487;48.626;12.486;2023-06-22T01:45:14;7.50;;;5.67;;
12840;SDS011;6487;48.626;12.486;2023-06-22T01:47:43;7.33;;;5.23;;
12840;SDS011;6487;48.626;12.486;2023-06-22T01:50:12;7.43;;;5.40;;
12840;SDS011;6487;48.626;12.486;2023-06-22T01:52:40;5.83;;;5.23;;
12840;SDS011;6487;48.626;12.486;2023-06-22T01:55:09;5.50;;;4.47;;
12840;SDS011;6487;48.626;12.486;2023-06-22T01:57:37;10.33;;;4.97;;
12840;SDS011;6487;48.626;12.486;2023-06-22T02:00:07;8.87;;;5.47;;
12840;SDS011;6487;48.626;12.486;2023-06-22T02:02:43;9.73;;;5.93;;
12840;SDS011;6487;48.626;12.486;2023-06-22T02:05:19;10.63;;;5.57;;
12840;SDS011;6487;48.626;12.486;2023-06-22T02:07:49;8.83;;;5.77;;
12840;SDS011;6487;48.626;12.486;2023-06-22T02:10:23;6.43;;;5.33;;
12840;SDS011;6487;48.626;12.486;2023-06-22T02:12:58;10.10;;;5.13;;
12840;SDS011;6487;48.626;12.486;2023-06-22T02:15:32;7.33;;;5.40;;
12840;SDS011;6487;48.626;12.486;2023-06-22T02:18:01;6.73;;;5.83;;
12840;SDS011;6487;48.626;12.486;2023-06-22T02:20:29;6.50;;;5.83;;
12840;SDS011;6487;48.626;12.486;2023-06-22T02:22:58;7.50;;;5.67;;
12840;SDS011;6487;48.626;12.486;2023-06-22T02:25:26;7.63;;;6.13;;
12840;SDS011;6487;48.626;12.486;2023-06-22T02:27:54;6.93;;;5.67;;
12840;SDS011;6487;48.626;12.486;2023-06-22T02:30:23;9.00;;;6.30;;
12840;SDS011;6487;48.626;12.486;2023-06-22T02:32:53;7.27;;;5.70;;
12840;SDS011;6487;48.626;12.486;2023-06-22T02:35:25;6.20;;;5.60;;
12840;SDS011;6487;48.626;12.486;2023-06-22T02:37:58;7.30;;;6.17;;
12840;SDS011;6487;48.626;12.486;2023-06-22T02:40:29;9.77;;;6.63;;
12840;SDS011;6487;48.626;12.486;2023-06-22T02:43:01;8.07;;;6.13;;
12840;SDS011;6487;48.626;12.486;2023-06-22T02:45:30;8.83;;;6.70;;
12840;SDS011;6487;48.626;12.486;2023-06-22T02:48:00;8.60;;;5.77;;
12840;SDS011;6487;48.626;12.486;2023-06-22T02:50:31;8.43;;;6.00;;
12840;SDS011;6487;48.626;12.486;2023-06-22T02:52:59;9.07;;;6.40;;
12840;SDS011;6487;48.626;12.486;2023-06-22T02:55:28;10.67;;;6.37;;
12840;SDS011;6487;48.626;12.486;2023-06-22T02:57:57;7.53;;;6.77;;
12840;SDS011;6487;48.626;12.486;2023-06-22T03:00:34;14.67;;;7.47;;
12840;SDS011;6487;48.626;12.486;2023-06-22T03:03:04;11.00;;;5.97;;
12840;SDS011;6487;48.626;12.486;2023-06-22T03:05:33;8.53;;;7.10;;
12840;SDS011;6487;48.626;12.486;2023-06-22T03:08:04;6.67;;;5.97;;
12840;SDS011;6487;48.626;12.486;2023-06-22T03:10:32;9.83;;;6.30;;
12840;SDS011;6487;48.626;12.486;2023-06-22T03:13:00;11.07;;;6.23;;
12840;SDS011;6487;48.626;12.486;2023-06-22T03:15:29;8.30;;;6.90;;
12840;SDS011;6487;48.626;12.486;2023-06-22T03:17:57;8.33;;;7.43;;
12840;SDS011;6487;48.626;12.486;2023-06-22T03:20:27;13.27;;;7.40;;
12840;SDS011;6487;48.626;12.486;2023-06-22T03:22:59;9.13;;;7.33;;
12840;SDS011;6487;48.626;12.486;2023-06-22T03:25:28;9.07;;;6.57;;
12840;SDS011;6487;48.626;12.486;2023-06-22T03:27:56;10.20;;;8.03;;
12840;SDS011;6487;48.626;12.486;2023-06-22T03:30:24;11.33;;;8.23;;
12840;SDS011;6487;48.626;12.486;2023-06-22T03:32:53;8.40;;;7.00;;
12840;SDS011;6487;48.626;12.486;2023-06-22T03:35:22;13.50;;;7.20;;
12840;SDS011;6487;48.626;12.486;2023-06-22T03:37:52;11.83;;;7.83;;
12840;SDS011;6487;48.626;12.486;2023-06-22T03:40:23;14.40;;;7.77;;
12840;SDS011;6487;48.626;12.486;2023-06-22T03:42:51;9.00;;;7.00;;
12840;SDS011;6487;48.626;12.486;2023-06-22T03:45:20;10.93;;;7.20;;
12840;SDS011;6487;48.626;12.486;2023-06-22T03:47:48;8.90;;;7.43;;
12840;SDS011;6487;48.626;12.486;2023-06-22T03:50:17;9.63;;;6.97;;
12840;SDS011;6487;48.626;12.486;2023-06-22T03:52:49;8.30;;;7.07;;
12840;SDS011;6487;48.626;12.486;2023-06-22T03:55:22;10.73;;;7.47;;
12840;SDS011;6487;48.626;12.486;2023-06-22T03:57:50;9.23;;;6.77;;
12840;SDS011;6487;48.626;12.486;2023-06-22T04:00:20;9.17;;;7.13;;
12840;SDS011;6487;48.626;12.486;2023-06-22T04:02:48;8.00;;;7.20;;
12840;SDS011;6487;48.626;12.486;2023-06-22T04:05:17;9.57;;;8.00;;
12840;SDS011;6487;48.626;12.486;2023-06-22T04:07:45;11.40;;;7.67;;
12840;SDS011;6487;48.626;12.486;2023-06-22T04:10:18;10.60;;;7.40;;
12840;SDS011;6487;48.626;12.486;2023-06-22T04:12:49;9.63;;;6.77;;
12840;SDS011;6487;48.626;12.486;2023-06-22T04:15:18;9.43;;;7.53;;
12840;SDS011;6487;48.626;12.486;2023-06-22T04:17:46;11.17;;;7.97;;
12840;SDS011;6487;48.626;12.486;2023-06-22T04:20:14;8.00;;;6.90;;
12840;SDS011;6487;48.626;12.486;2023-06-22T04:22:43;10.57;;;7.27;;
12840;SDS011;6487;48.626;12.486;2023-06-22T04:25:14;10.60;;;7.67;;
12840;SDS011;6487;48.626;12.486;2023-06-22T04:27:44;9.53;;;7.53;;
12840;SDS011;6487;48.626;12.486;2023-06-22T04:30:12;10.30;;;7.67;;
12840;SDS011;6487;48.626;12.486;2023-06-22T04:32:42;8.03;;;7.00;;
12840;SDS011;6487;48.626;12.486;2023-06-22T04:35:11;9.40;;;7.07;;
12840;SDS011;6487;48.626;12.486;2023-06-22T04:37:42;9.60;;;7.30;;
12840;SDS011;6487;48.626;12.486;2023-06-22T04:40:12;13.00;;;7.57;;
12840;SDS011;6487;48.626;12.486;2023-06-22T04:42:40;7.53;;;6.43;;
12840;SDS011;6487;48.626;12.486;2023-06-22T04:45:20;11.27;;;6.80;;
12840;SDS011;6487;48.626;12.486;2023-06-22T04:47:49;10.53;;;6.77;;
12840;SDS011;6487;48.626;12.486;2023-06-22T04:50:18;10.77;;;7.27;;
12840;SDS011;6487;48.626;12.486;2023-06-22T04:52:48;9.53;;;6.73;;
12840;SDS011;6487;48.626;12.486;2023-06-22T04:55:16;10.53;;;6.87;;
12840;SDS011;6487;48.626;12.486;2023-06-22T04:57:46;9.10;;;7.23;;
12840;SDS011;6487;48.626;12.486;2023-06-22T05:00:16;10.87;;;7.20;;
12840;SDS011;6487;48.626;12.486;2023-06-22T05:02:50;11.00;;;7.23;;
12840;SDS011;6487;48.626;12.486;2023-06-22T05:05:43;8.27;;;6.30;;
12840;SDS011;6487;48.626;12.486;2023-06-22T05:08:13;11.07;;;7.43;;
12840;SDS011;6487;48.626;12.486;2023-06-22T05:10:41;9.57;;;7.23;;
12840;SDS011;6487;48.626;12.486;2023-06-22T05:13:31;11.53;;;6.60;;
12840;SDS011;6487;48.626;12.486;2023-06-22T05:15:59;7.40;;;6.57;;
12840;SDS011;6487;48.626;12.486;2023-06-22T05:18:30;9.07;;;7.30;;
12840;SDS011;6487;48.626;12.486;2023-06-22T05:20:59;8.00;;;7.10;;
12840;SDS011;6487;48.626;12.486;2023-06-22T05:23:28;10.73;;;7.13;;
12840;SDS011;6487;48.626;12.486;2023-06-22T05:25:56;11.40;;;6.97;;
12840;SDS011;6487;48.626;12.486;2023-06-22T05:28:27;10.40;;;7.60;;
12840;SDS011;6487;48.626;12.486;2023-06-22T05:30:55;8.97;;;6.63;;
12840;SDS011;6487;48.626;12.486;2023-06-22T05:33:24;11.23;;;7.37;;
12840;SDS011;6487;48.626;12.486;2023-06-22T05:35:54;8.27;;;6.47;;
12840;SDS011;6487;48.626;12.486;2023-06-22T05:38:22;10.27;;;6.63;;
12840;SDS011;6487;48.626;12.486;2023-06-22T05:40:50;7.90;;;6.30;;
12840;SDS011;6487;48.626;12.486;2023-06-22T05:43:19;12.73;;;6.33;;
12840;SDS011;6487;48.626;12.486;2023-06-22T05:45:47;8.40;;;6.43;;
12840;SDS011;6487;48.626;12.486;2023-06-22T05:48:15;9.33;;;6.67;;
12840;SDS011;6487;48.626;12.486;2023-06-22T05:50:44;11.67;;;6.90;;
12840;SDS011;6487;48.626;12.486;2023-06-22T05:53:14;9.97;;;6.63;;
12840;SDS011;6487;48.626;12.486;2023-06-22T05:55:44;7.67;;;6.40;;
12840;SDS011;6487;48.626;12.486;2023-06-22T05:58:14;8.43;;;6.77;;
12840;SDS011;6487;48.626;12.486;2023-06-22T06:00:43;10.73;;;6.07;;
12840;SDS011;6487;48.626;12.486;2023-06-22T06:03:12;7.33;;;5.63;;
12840;SDS011;6487;48.626;12.486;2023-06-22T06:05:46;8.27;;;6.30;;
12840;SDS011;6487;48.626;12.486;2023-06-22T06:08:16;7.03;;;5.80;;
12840;SDS011;6487;48.626;12.486;2023-06-22T06:10:44;7.57;;;6.13;;
12840;SDS011;6487;48.626;12.486;2023-06-22T06:13:14;7.07;;;5.93;;
12840;SDS011;6487;48.626;12.486;2023-06-22T06:15:43;9.57;;;6.03;;
12840;SDS011;6487;48.626;12.486;2023-06-22T06:18:11;8.10;;;6.10;;
12840;SDS011;6487;48.626;12.486;2023-06-22T06:20:40;8.77;;;6.80;;
12840;SDS011;6487;48.626;12.486;2023-06-22T06:23:08;11.43;;;6.30;;
12840;SDS011;6487;48.626;12.486;2023-06-22T06:25:38;10.57;;;6.93;;
12840;SDS011;6487;48.626;12.486;2023-06-22T06:28:06;8.07;;;5.97;;
12840;SDS011;6487;48.626;12.486;2023-06-22T06:30:34;8.57;;;7.10;;
12840;SDS011;6487;48.626;12.486;2023-06-22T06:33:04;9.87;;;6.90;;
12840;SDS011;6487;48.626;12.486;2023-06-22T06:35:35;9.87;;;6.97;;
12840;SDS011;6487;48.626;12.486;2023-06-22T06:38:04;8.23;;;6.37;;
12840;SDS011;6487;48.626;12.486;2023-06-22T06:40:32;8.33;;;5.93;;
12840;SDS011;6487;48.626;12.486;2023-06-22T06:43:02;10.00;;;6.20;;
12840;SDS011;6487;48.626;12.486;2023-06-22T06:45:30;16.10;;;8.57;;
12840;SDS011;6487;48.626;12.486;2023-06-22T06:48:01;7.57;;;6.40;;
12840;SDS011;6487;48.626;12.486;2023-06-22T06:50:29;8.43;;;6.57;;
12840;SDS011;6487;48.626;12.486;2023-06-22T06:52:58;11.27;;;5.80;;
12840;SDS011;6487;48.626;12.486;2023-06-22T06:55:27;8.13;;;5.73;;
12840;SDS011;6487;48.626;12.486;2023-06-22T06:57:59;8.80;;;5.83;;
12840;SDS011;6487;48.626;12.486;2023-06-22T07:00:29;15.13;;;7.13;;
12840;SDS011;6487;48.626;12.486;2023-06-22T07:02:58;12.43;;;8.10;;
12840;SDS011;6487;48.626;12.486;2023-06-22T07:05:27;6.70;;;5.90;;
12840;SDS011;6487;48.626;12.486;2023-06-22T07:07:55;7.50;;;5.27;;
12840;SDS011;6487;48.626;12.486;2023-06-22T07:10:23;6.27;;;5.20;;
12840;SDS011;6487;48.626;12.486;2023-06-22T07:12:52;5.43;;;4.77;;
12840;SDS011;6487;48.626;12.486;2023-06-22T07:15:21;8.63;;;5.50;;
12840;SDS011;6487;48.626;12.486;2023-06-22T07:17:50;8.07;;;5.40;;
12840;SDS011;6487;48.626;12.486;2023-06-22T07:20:19;5.10;;;4.17;;
12840;SDS011;6487;48.626;12.486;2023-06-22T07:22:47;7.20;;;4.90;;
12840;SDS011;6487;48.626;12.486;2023-06-22T07:25:16;7.37;;;5.50;;
12840;SDS011;6487;48.626;12.486;2023-06-22T07:27:44;6.67;;;5.13;;
12840;SDS011;6487;48.626;12.486;2023-06-22T07:30:23;6.70;;;4.97;;
12840;SDS011;6487;48.626;12.486;2023-06-22T07:32:55;5.70;;;5.00;;
12840;SDS011;6487;48.626;12.486;2023-06-22T07:35:24;8.03;;;5.50;;
12840;SDS011;6487;48.626;12.486;2023-06-22T07:37:53;6.50;;;5.22;;
12840;SDS011;6487;48.626;12.486;2023-06-22T07:40:21;8.97;;;4.73;;
12840;SDS011;6487;48.626;12.486;2023-06-22T07:42:50;5.93;;;4.07;;
12840;SDS011;6487;48.626;12.486;2023-06-22T07:45:19;8.65;;;4.78;;
12840;SDS011;6487;48.626;12.486;2023-06-22T07:47:48;7.13;;;4.40;;
12840;SDS011;6487;48.626;12.486;2023-06-22T07:50:18;6.40;;;4.00;;
12840;SDS011;6487;48.626;12.486;2023-06-22T07:52:47;6.50;;;4.43;;
12840;SDS011;6487;48.626;12.486;2023-06-22T07:55:15;5.82;;;3.83;;
12840;SDS011;6487;48.626;12.486;2023-06-22T07:57:46;5.82;;;3.97;;
12840;SDS011;6487;48.626;12.486;2023-06-22T08:00:19;5.18;;;3.80;;
12840;SDS011;6487;48.626;12.486;2023-06-22T08:02:48;4.82;;;4.00;;
12840;SDS011;6487;48.626;12.486;2023-06-22T08:05:18;5.78;;;4.40;;
12840;SDS011;6487;48.626;12.486;2023-06-22T08:07:48;6.35;;;4.60;;
12840;SDS011;6487;48.626;12.486;2023-06-22T08:10:17;7.85;;;4.10;;
12840;SDS011;6487;48.626;12.486;2023-06-22T08:12:46;4.55;;;4.05;;
12840;SDS011;6487;48.626;12.486;2023-06-22T08:15:15;7.05;;;3.70;;
12840;SDS011;6487;48.626;12.486;2023-06-22T08:17:43;5.45;;;3.88;;
12840;SDS011;6487;48.626;12.486;2023-06-22T08:20:12;6.38;;;4.18;;
12840;SDS011;6487;48.626;12.486;2023-06-22T08:22:42;6.50;;;3.92;;
12840;SDS011;6487;48.626;12.486;2023-06-22T08:25:11;5.75;;;4.10;;
12840;SDS011;6487;48.626;12.486;2023-06-22T08:27:44;4.80;;;3.97;;
12840;SDS011;6487;48.626;12.486;2023-06-22T08:30:15;5.55;;;4.30;;
12840;SDS011;6487;48.626;12.486;2023-06-22T08:32:46;7.47;;;4.38;;
12840;SDS011;6487;48.626;12.486;2023-06-22T08:35:14;7.63;;;3.90;;
12840;SDS011;6487;48.626;12.486;2023-06-22T08:37:44;5.15;;;3.95;;
12840;SDS011;6487;48.626;12.486;2023-06-22T08:40:18;4.97;;;4.00;;
12840;SDS011;6487;48.626;12.486;2023-06-22T08:42:47;5.18;;;3.95;;
12840;SDS011;6487;48.626;12.486;2023-06-22T08:45:16;9.27;;;3.90;;
12840;SDS011;6487;48.626;12.486;2023-06-22T08:47:45;5.82;;;3.63;;
12840;SDS011;6487;48.626;12.486;2023-06-22T08:50:13;5.07;;;4.28;;
12840;SDS011;6487;48.626;12.486;2023-06-22T08:52:42;4.97;;;4.38;;
12840;SDS011;6487;48.626;12.486;2023-06-22T08:55:12;5.32;;;4.22;;
12840;SDS011;6487;48.626;12.486;2023-06-22T08:57:41;4.43;;;3.90;;
12840;SDS011;6487;48.626;12.486;2023-06-22T09:00:10;5.55;;;3.90;;
12840;SDS011;6487;48.626;12.486;2023-06-22T09:02:46;5.88;;;4.53;;
12840;SDS011;6487;48.626;12.486;2023-06-22T09:05:15;7.57;;;4.30;;
12840;SDS011;6487;48.626;12.486;2023-06-22T09:07:46;6.03;;;3.90;;
12840;SDS011;6487;48.626;12.486;2023-06-22T09:10:14;5.60;;;4.28;;
12840;SDS011;6487;48.626;12.486;2023-06-22T09:12:43;10.13;;;5.15;;
12840;SDS011;6487;48.626;12.486;2023-06-22T09:15:11;7.85;;;4.43;;
12840;SDS011;6487;48.626;12.486;2023-06-22T09:17:43;7.70;;;4.22;;
12840;SDS011;6487;48.626;12.486;2023-06-22T09:20:13;9.77;;;4.72;;
12840;SDS011;6487;48.626;12.486;2023-06-22T09:22:42;7.53;;;5.00;;
12840;SDS011;6487;48.626;12.486;2023-06-22T09:25:12;6.38;;;3.80;;
12840;SDS011;6487;48.626;12.486;2023-06-22T09:27:41;4.82;;;4.25;;
12840;SDS011;6487;48.626;12.486;2023-06-22T09:30:09;7.55;;;4.57;;
12840;SDS011;6487;48.626;12.486;2023-06-22T09:32:40;9.18;;;4.70;;
12840;SDS011;6487;48.626;12.486;2023-06-22T09:35:10;11.15;;;4.88;;
12840;SDS011;6487;48.626;12.486;2023-06-22T09:37:40;5.25;;;4.40;;
12840;SDS011;6487;48.626;12.486;2023-06-22T09:40:08;8.18;;;5.05;;
12840;SDS011;6487;48.626;12.486;2023-06-22T09:42:42;7.70;;;4.93;;
12840;SDS011;6487;48.626;12.486;2023-06-22T09:45:10;9.32;;;4.43;;
12840;SDS011;6487;48.626;12.486;2023-06-22T09:47:38;5.88;;;4.22;;
12840;SDS011;6487;48.626;12.486;2023-06-22T09:50:07;6.10;;;4.00;;
12840;SDS011;6487;48.626;12.486;2023-06-22T09:52:37;8.95;;;4.72;;
12840;SDS011;6487;48.626;12.486;2023-06-22T09:55:08;7.32;;;4.65;;
12840;SDS011;6487;48.626;12.486;2023-06-22T09:57:43;7.07;;;4.20;;
12840;SDS011;6487;48.626;12.486;2023-06-22T10:00:12;10.48;;;4.78;;
12840;SDS011;6487;48.626;12.486;2023-06-22T10:02:42;9.93;;;4.90;;
12840;SDS011;6487;48.626;12.486;2023-06-22T10:05:11;7.90;;;4.38;;
12840;SDS011;6487;48.626;12.486;2023-06-22T10:07:39;7.38;;;4.43;;
12840;SDS011;6487;48.626;12.486;2023-06-22T10:10:10;12.98;;;4.75;;
12840;SDS011;6487;48.626;12.486;2023-06-22T10:12:45;8.45;;;4.50;;
12840;SDS011;6487;48.626;12.486;2023-06-22T10:15:15;8.20;;;4.97;;
12840;SDS011;6487;48.626;12.486;2023-06-22T10:17:47;8.30;;;4.55;;
12840;SDS011;6487;48.626;12.486;2023-06-22T10:20:22;6.78;;;4.68;;
12840;SDS011;6487;48.626;12.486;2023-06-22T10:22:54;10.07;;;4.90;;
12840;SDS011;6487;48.626;12.486;2023-06-22T10:25:26;8.57;;;4.53;;
12840;SDS011;6487;48.626;12.486;2023-06-22T10:27:56;7.13;;;4.43;;
12840;SDS011;6487;48.626;12.486;2023-06-22T10:30:25;5.60;;;3.53;;
12840;SDS011;6487;48.626;12.486;2023-06-22T10:32:55;8.95;;;4.18;;
12840;SDS011;6487;48.626;12.486;2023-06-22T10:35:28;5.28;;;4.50;;
12840;SDS011;6487;48.626;12.486;2023-06-22T10:37:57;12.95;;;4.57;;
12840;SDS011;6487;48.626;12.486;2023-06-22T10:40:26;5.55;;;4.10;;
12840;SDS011;6487;48.626;12.486;2023-06-22T10:42:54;12.07;;;4.68;;
12840;SDS011;6487;48.626;12.486;2023-06-22T10:45:24;6.72;;;4.10;;
12840;SDS011;6487;48.626;12.486;2023-06-22T10:47:54;9.30;;;4.95;;
12840;SDS011;6487;48.626;12.486;2023-06-22T10:50:22;7.85;;;4.85;;
12840;SDS011;6487;48.626;12.486;2023-06-22T10:52:52;8.88;;;4.25;;
12840;SDS011;6487;48.626;12.486;2023-06-22T10:55:25;7.00;;;4.57;;
12840;SDS011;6487;48.626;12.486;2023-06-22T10:58:13;7.80;;;4.43;;
12840;SDS011;6487;48.626;12.486;2023-06-22T11:00:42;7.60;;;4.40;;
12840;SDS011;6487;48.626;12.486;2023-06-22T11:03:10;6.15;;;4.68;;
12840;SDS011;6487;48.626;12.486;2023-06-22T11:05:40;9.13;;;4.55;;
12840;SDS011;6487;48.626;12.486;2023-06-22T11:08:09;12.82;;;4.97;;
12840;SDS011;6487;48.626;12.486;2023-06-22T11:10:37;7.85;;;4.60;;
12840;SDS011;6487;48.626;12.486;2023-06-22T11:13:05;6.32;;;4.85;;
12840;SDS011;6487;48.626;12.486;2023-06-22T11:15:39;9.05;;;4.07;;
12840;SDS011;6487;48.626;12.486;2023-06-22T11:18:08;7.40;;;4.65;;
12840;SDS011;6487;48.626;12.486;2023-06-22T11:20:36;9.30;;;4.30;;
12840;SDS011;6487;48.626;12.486;2023-06-22T11:23:09;7.15;;;4.85;;
12840;SDS011;6487;48.626;12.486;2023-06-22T11:25:39;7.55;;;4.38;;
12840;SDS011;6487;48.626;12.486;2023-06-22T11:28:08;9.63;;;5.22;;
12840;SDS011;6487;48.626;12.486;2023-06-22T11:30:37;9.05;;;5.18;;
12840;SDS011;6487;48.626;12.486;2023-06-22T11:33:06;7.63;;;4.13;;
12840;SDS011;6487;48.626;12.486;2023-06-22T11:35:35;6.22;;;4.30;;
12840;SDS011;6487;48.626;12.486;2023-06-22T11:38:03;10.38;;;4.28;;
12840;SDS011;6487;48.626;12.486;2023-06-22T11:40:31;4.78;;;4.10;;
12840;SDS011;6487;48.626;12.486;2023-06-22T11:43:00;9.30;;;5.13;;
12840;SDS011;6487;48.626;12.486;2023-06-22T11:45:29;10.30;;;4.70;;
12840;SDS011;6487;48.626;12.486;2023-06-22T11:47:57;12.95;;;4.65;;
12840;SDS011;6487;48.626;12.486;2023-06-22T11:50:27;11.48;;;5.03;;
12840;SDS011;6487;48.626;12.486;2023-06-22T11:52:57;6.65;;;4.93;;
12840;SDS011;6487;48.626;12.486;2023-06-22T11:55:25;12.93;;;4.88;;
12840;SDS011;6487;48.626;12.486;2023-06-22T11:57:54;8.25;;;4.65;;
12840;SDS011;6487;48.626;12.486;2023-06-22T12:00:26;10.70;;;4.35;;
12840;SDS011;6487;48.626;12.486;2023-06-22T12:02:56;14.75;;;5.38;;
12840;SDS011;6487;48.626;12.486;2023-06-22T12:05:28;9.48;;;5.75;;
12840;SDS011;6487;48.626;12.486;2023-06-22T12:07:56;7.80;;;4.50;;
12840;SDS011;6487;48.626;12.486;2023-06-22T12:10:25;8.40;;;4.47;;
12840;SDS011;6487;48.626;12.486;2023-06-22T12:12:55;8.45;;;5.03;;
12840;SDS011;6487;48.626;12.486;2023-06-22T12:15:26;8.80;;;4.75;;
12840;SDS011;6487;48.626;12.486;2023-06-22T12:17:54;10.30;;;5.20;;
12840;SDS011;6487;48.626;12.486;2023-06-22T12:20:23;9.43;;;4.35;;
12840;SDS011;6487;48.626;12.486;2023-06-22T12:22:53;10.75;;;4.55;;
12840;SDS011;6487;48.626;12.486;2023-06-22T12:25:22;8.10;;;4.82;;
12840;SDS011;6487;48.626;12.486;2023-06-22T12:27:51;11.00;;;4.82;;
12840;SDS011;6487;48.626;12.486;2023-06-22T12:30:20;8.55;;;5.13;;
12840;SDS011;6487;48.626;12.486;2023-06-22T12:32:48;11.68;;;5.00;;
12840;SDS011;6487;48.626;12.486;2023-06-22T12:35:20;9.50;;;4.95;;
12840;SDS011;6487;48.626;12.486;2023-06-22T12:37:48;11.98;;;5.10;;
12840;SDS011;6487;48.626;12.486;2023-06-22T12:40:18;10.10;;;5.15;;
12840;SDS011;6487;48.626;12.486;2023-06-22T12:42:49;8.40;;;4.53;;
12840;SDS011;6487;48.626;12.486;2023-06-22T12:45:17;7.00;;;4.60;;
12840;SDS011;6487;48.626;12.486;2023-06-22T12:47:47;10.27;;;5.50;;
12840;SDS011;6487;48.626;12.486;2023-06-22T12:50:19;11.82;;;5.32;;
12840;SDS011;6487;48.626;12.486;2023-06-22T12:52:47;8.43;;;4.82;;
12840;SDS011;6487;48.626;12.486;2023-06-22T12:55:15;11.98;;;5.40;;
12840;SDS011;6487;48.626;12.486;2023-06-22T12:57:45;11.77;;;5.65;;
12840;SDS011;6487;48.626;12.486;2023-06-22T13:00:14;11.07;;;5.03;;
12840;SDS011;6487;48.626;12.486;2023-06-22T13:02:43;15.30;;;5.32;;
12840;SDS011;6487;48.626;12.486;2023-06-22T13:05:12;11.38;;;5.25;;
12840;SDS011;6487;48.626;12.486;2023-06-22T13:07:40;12.20;;;5.55;;
12840;SDS011;6487;48.626;12.486;2023-06-22T13:10:09;15.65;;;5.30;;
12840;SDS011;6487;48.626;12.486;2023-06-22T13:12:37;15.90;;;5.70;;
12840;SDS011;6487;48.626;12.486;2023-06-22T13:15:07;9.00;;;5.28;;
12840;SDS011;6487;48.626;12.486;2023-06-22T13:17:36;11.70;;;6.13;;
12840;SDS011;6487;48.626;12.486;2023-06-22T13:20:05;9.57;;;5.47;;
12840;SDS011;6487;48.626;12.486;2023-06-22T13:22:42;13.75;;;6.13;;
12840;SDS011;6487;48.626;12.486;2023-06-22T13:25:11;10.23;;;5.35;;
12840;SDS011;6487;48.626;12.486;2023-06-22T13:27:40;8.90;;;4.97;;
12840;SDS011;6487;48.626;12.486;2023-06-22T13:30:10;11.18;;;5.85;;
12840;SDS011;6487;48.626;12.486;2023-06-22T13:32:41;19.10;;;5.35;;
12840;SDS011;6487;48.626;12.486;2023-06-22T13:35:10;11.27;;;5.85;;
12840;SDS011;6487;48.626;12.486;2023-06-22T13:37:39;12.82;;;5.90;;
12840;SDS011;6487;48.626;12.486;2023-06-22T13:40:08;8.82;;;5.03;;
12840;SDS011;6487;48.626;12.486;2023-06-22T13:42:37;9.98;;;5.10;;
12840;SDS011;6487;48.626;12.486;2023-06-22T13:45:06;10.90;;;6.03;;
12840;SDS011;6487;48.626;12.486;2023-06-22T13:47:42;10.07;;;5.13;;
12840;SDS011;6487;48.626;12.486;2023-06-22T13:50:10;11.70;;;5.32;;
12840;SDS011;6487;48.626;12.486;2023-06-22T13:52:40;9.13;;;5.50;;
12840;SDS011;6487;48.626;12.486;2023-06-22T13:55:08;12.27;;;5.43;;
12840;SDS011;6487;48.626;12.486;2023-06-22T13:57:40;8.88;;;5.50;;
12840;SDS011;6487;48.626;12.486;2023-06-22T14:00:11;12.05;;;5.65;;
12840;SDS011;6487;48.626;12.486;2023-06-22T14:02:42;9.40;;;5.03;;
12840;SDS011;6487;48.626;12.486;2023-06-22T14:05:11;10.57;;;4.88;;
12840;SDS011;6487;48.626;12.486;2023-06-22T14:07:40;8.43;;;5.22;;
12840;SDS011;6487;48.626;12.486;2023-06-22T14:10:08;8.13;;;5.45;;
12840;SDS011;6487;48.626;12.486;2023-06-22T14:12:40;9.75;;;5.55;;
12840;SDS011;6487;48.626;12.486;2023-06-22T14:15:08;9.75;;;4.80;;
12840;SDS011;6487;48.626;12.486;2023-06-22T14:17:38;7.93;;;5.28;;
12840;SDS011;6487;48.626;12.486;2023-06-22T14:20:10;8.07;;;4.95;;
12840;SDS011;6487;48.626;12.486;2023-06-22T14:22:39;10.20;;;5.55;;
12840;SDS011;6487;48.626;12.486;2023-06-22T14:25:07;10.10;;;5.57;;
12840;SDS011;6487;48.626;12.486;2023-06-22T14:27:36;11.85;;;5.43;;
12840;SDS011;6487;48.626;12.486;2023-06-22T14:30:05;11.35;;;5.47;;
12840;SDS011;6487;48.626;12.486;2023-06-22T14:32:36;11.07;;;5.45;;
12840;SDS011;6487;48.626;12.486;2023-06-22T14:35:07;8.70;;;5.47;;
12840;SDS011;6487;48.626;12.486;2023-06-22T14:37:38;12.15;;;5.32;;
12840;SDS011;6487;48.626;12.486;2023-06-22T14:40:06;9.40;;;5.47;;
12840;SDS011;6487;48.626;12.486;2023-06-22T14:42:36;9.40;;;5.63;;
12840;SDS011;6487;48.626;12.486;2023-06-22T14:45:05;11.80;;;5.30;;
12840;SDS011;6487;48.626;12.486;2023-06-22T14:47:38;12.27;;;5.60;;
12840;SDS011;6487;48.626;12.486;2023-06-22T14:50:07;11.32;;;5.75;;
12840;SDS011;6487;48.626;12.486;2023-06-22T14:52:36;9.43;;;5.32;;
12840;SDS011;6487;48.626;12.486;2023-06-22T14:55:05;8.98;;;5.85;;
12840;SDS011;6487;48.626;12.486;2023-06-22T14:57:34;11.25;;;5.30;;
12840;SDS011;6487;48.626;12.486;2023-06-22T15:00:03;11.68;;;6.43;;